Time;durP1;ratioP1;P1;durP2;ratioP2;P2;SDS_P1;SDS_P2;PMS_P1;PMS_P2;Temp;Humidity;BMP_temperature;BMP_pressure;BME280_temperature;BME280_humidity;BME280_pressure;Samples;Min_cycle;Max_cycle;Signal;HPM_P1;HPM_P2
2020/12/24 00:01:19;;;;;;;12.48;2.35;;;;;;;;;;4959060;29;20031;-81
2020/12/24 00:03:45;;;;;;;14.80;1.97;;;;;;;;;;4960745;29;20040;-82
2020/12/24 00:06:12;;;;;;;18.23;2.13;;;;;;;;;;5102822;23;20063;-81
2020/12/24 00:08:38;;;;;;;16.43;3.33;;;;;;;;;;4959644;29;20047;-81
2020/12/24 00:11:04;;;;;;;16.10;2.00;;;;;;;;;;4955538;29;20023;-81
2020/12/24 00:13:30;;;;;;;21.63;3.17;;;;;;;;;;4958289;29;20047;-81
2020/12/24 00:15:56;;;;;;;18.47;2.80;;;;;;;;;;4956751;29;20059;-82
2020/12/24 00:18:22;;;;;;;18.60;2.27;;;;;;;;;;4953041;29;20028;-81
2020/12/24 00:20:48;;;;;;;11.03;2.30;;;;;;;;;;4954763;29;20027;-81
2020/12/24 00:23:14;;;;;;;16.50;3.00;;;;;;;;;;4956361;29;20087;-80
2020/12/24 00:25:40;;;;;;;12.77;2.13;;;;;;;;;;4957415;29;20008;-81
2020/12/24 00:28:07;;;;;;;19.97;2.67;;;;;;;;;;4961250;29;20015;-82
2020/12/24 00:30:33;;;;;;;12.17;2.00;;;;;;;;;;4959385;29;20031;-80
2020/12/24 00:35:35;;;;;;;12.93;2.03;;;;;;;;;;5167282;23;20043;-81
2020/12/24 00:38:02;;;;;;;11.87;2.20;;;;;;;;;;4953538;29;20117;-82
2020/12/24 00:40:28;;;;;;;15.07;2.43;;;;;;;;;;4942394;29;20043;-81
2020/12/24 00:42:54;;;;;;;12.30;2.03;;;;;;;;;;5001892;23;20063;-81
2020/12/24 00:45:20;;;;;;;12.77;2.13;;;;;;;;;;5000712;23;20063;-81
2020/12/24 00:47:46;;;;;;;15.03;3.00;;;;;;;;;;4950782;29;20038;-81
2020/12/24 00:50:12;;;;;;;11.00;2.23;;;;;;;;;;4948936;29;20033;-81
2020/12/24 00:52:39;;;;;;;9.53;2.03;;;;;;;;;;4938639;29;20027;-82
2020/12/24 00:55:05;;;;;;;12.80;1.53;;;;;;;;;;5105515;23;20140;-82
2020/12/24 00:57:31;;;;;;;9.33;2.00;;;;;;;;;;4955497;29;20040;-81
2020/12/24 00:59:57;;;;;;;22.93;2.97;;;;;;;;;;4954026;29;20095;-81
2020/12/24 01:02:23;;;;;;;13.90;2.87;;;;;;;;;;4949522;29;20080;-82
2020/12/24 01:04:49;;;;;;;8.60;2.30;;;;;;;;;;4934586;29;20040;-82
2020/12/24 01:07:15;;;;;;;10.53;2.07;;;;;;;;;;5026618;23;20060;-81
2020/12/24 01:09:41;;;;;;;13.13;1.53;;;;;;;;;;4932318;29;20123;-81
2020/12/24 01:12:08;;;;;;;9.73;1.40;;;;;;;;;;4951806;29;20107;-81
2020/12/24 01:14:34;;;;;;;14.30;2.23;;;;;;;;;;4950092;29;20032;-81
2020/12/24 01:17:00;;;;;;;11.20;1.60;;;;;;;;;;4951919;29;20120;-82
2020/12/24 01:19:26;;;;;;;12.67;2.07;;;;;;;;;;4951988;29;20084;-81
2020/12/24 01:21:52;;;;;;;6.87;1.83;;;;;;;;;;4944354;29;20123;-80
2020/12/24 01:24:19;;;;;;;12.03;2.20;;;;;;;;;;4932390;29;20043;-80
2020/12/24 01:26:45;;;;;;;15.40;2.40;;;;;;;;;;4950042;29;20048;-81
2020/12/24 01:29:11;;;;;;;14.07;2.07;;;;;;;;;;4954020;29;20036;-83
2020/12/24 01:31:37;;;;;;;8.07;1.57;;;;;;;;;;5156828;23;20027;-79
2020/12/24 01:34:03;;;;;;;11.03;2.30;;;;;;;;;;4958581;29;20040;-81
2020/12/24 01:36:29;;;;;;;12.73;1.73;;;;;;;;;;4951123;29;20032;-80
2020/12/24 01:38:55;;;;;;;9.53;2.13;;;;;;;;;;4953919;29;20055;-80
2020/12/24 01:41:21;;;;;;;11.30;1.90;;;;;;;;;;4952710;29;20032;-79
2020/12/24 01:43:48;;;;;;;11.03;2.17;;;;;;;;;;4946704;29;20038;-81
2020/12/24 01:46:14;;;;;;;8.70;1.70;;;;;;;;;;4948437;29;20063;-82
2020/12/24 01:48:40;;;;;;;12.33;1.97;;;;;;;;;;4945328;29;20063;-81
2020/12/24 01:51:08;;;;;;;14.83;1.83;;;;;;;;;;4945605;29;20048;-80
2020/12/24 01:53:34;;;;;;;11.27;2.07;;;;;;;;;;5086555;23;20067;-81
2020/12/24 01:56:00;;;;;;;9.20;2.00;;;;;;;;;;4998673;23;20051;-80
2020/12/24 01:58:27;;;;;;;11.17;1.83;;;;;;;;;;4951684;28;20063;-81
2020/12/24 02:00:53;;;;;;;11.63;1.60;;;;;;;;;;4949198;29;20031;-80
2020/12/24 02:03:19;;;;;;;9.83;1.30;;;;;;;;;;4964964;29;20032;-80
2020/12/24 02:05:45;;;;;;;8.83;1.40;;;;;;;;;;4968819;28;20067;-80
2020/12/24 02:08:11;;;;;;;14.03;1.30;;;;;;;;;;4970052;29;20034;-80
2020/12/24 02:10:38;;;;;;;15.43;2.07;;;;;;;;;;4953966;28;20113;-82
2020/12/24 02:13:04;;;;;;;5.37;1.13;;;;;;;;;;4974582;23;20070;-82
2020/12/24 02:15:30;;;;;;;8.60;1.33;;;;;;;;;;4954595;29;20032;-80
2020/12/24 02:17:56;;;;;;;7.57;1.30;;;;;;;;;;4959667;29;20058;-81
2020/12/24 02:20:22;;;;;;;16.30;1.60;;;;;;;;;;4950318;29;20032;-80
2020/12/24 02:22:48;;;;;;;8.17;1.07;;;;;;;;;;4944639;29;20035;-81
2020/12/24 02:25:14;;;;;;;11.10;1.20;;;;;;;;;;4945556;29;20034;-81
2020/12/24 02:27:40;;;;;;;11.83;1.50;;;;;;;;;;4946435;29;20095;-80
2020/12/24 02:30:07;;;;;;;12.80;1.00;;;;;;;;;;4949253;29;20028;-80
2020/12/24 02:32:33;;;;;;;14.13;2.57;;;;;;;;;;4949512;29;20035;-80
2020/12/24 02:34:59;;;;;;;4.60;0.60;;;;;;;;;;4954592;29;20035;-81
2020/12/24 02:37:25;;;;;;;1.80;0.40;;;;;;;;;;4962253;29;20020;-81
2020/12/24 02:39:52;;;;;;;11.53;0.60;;;;;;;;;;4993238;23;20087;-81
2020/12/24 02:42:19;;;;;;;1.33;0.77;;;;;;;;;;5105401;23;20067;-82
2020/12/24 02:44:45;;;;;;;1.03;0.43;;;;;;;;;;4959640;29;20027;-80
2020/12/24 02:47:11;;;;;;;7.03;0.87;;;;;;;;;;4953982;29;20100;-80
2020/12/24 02:49:38;;;;;;;4.93;0.60;;;;;;;;;;4953031;29;20031;-80
2020/12/24 02:52:04;;;;;;;3.20;0.50;;;;;;;;;;4948676;29;20024;-80
2020/12/24 02:54:31;;;;;;;1.63;0.65;;;;;;;;;;4947988;29;20047;-80
2020/12/24 02:56:59;;;;;;;3.30;0.50;;;;;;;;;;4956320;29;20028;-80
2020/12/24 02:59:25;;;;;;;3.80;0.40;;;;;;;;;;4958153;29;20023;-80
2020/12/24 03:01:52;;;;;;;4.23;0.70;;;;;;;;;;4931049;29;20067;-80
2020/12/24 03:04:19;;;;;;;2.13;0.40;;;;;;;;;;4950839;29;20063;-80
2020/12/24 03:06:45;;;;;;;4.93;0.80;;;;;;;;;;4953186;29;20047;-80
2020/12/24 03:09:11;;;;;;;4.07;0.60;;;;;;;;;;4951969;29;20023;-81
2020/12/24 03:11:40;;;;;;;1.77;0.40;;;;;;;;;;4953347;29;20116;-80
2020/12/24 03:14:06;;;;;;;2.27;0.67;;;;;;;;;;4957496;29;20023;-80
2020/12/24 03:16:33;;;;;;;2.57;1.30;;;;;;;;;;4960413;29;20031;-82
2020/12/24 03:18:59;;;;;;;0.50;0.30;;;;;;;;;;4960335;29;20031;-83
2020/12/24 03:21:25;;;;;;;3.00;0.40;;;;;;;;;;4959518;29;20015;-82
2020/12/24 03:23:51;;;;;;;1.90;0.60;;;;;;;;;;4960585;29;20023;-81
2020/12/24 03:26:17;;;;;;;1.73;0.40;;;;;;;;;;4961019;29;20031;-81
2020/12/24 03:28:43;;;;;;;4.97;0.40;;;;;;;;;;4960376;29;20035;-81
2020/12/24 03:31:09;;;;;;;0.57;0.10;;;;;;;;;;4960353;29;20032;-80
2020/12/24 03:33:35;;;;;;;5.83;0.60;;;;;;;;;;4955350;29;20015;-82
2020/12/24 03:36:01;;;;;;;2.97;1.00;;;;;;;;;;4956157;29;20072;-81
2020/12/24 03:38:27;;;;;;;1.00;0.40;;;;;;;;;;4954986;29;20470;-82
2020/12/24 03:40:53;;;;;;;2.13;0.30;;;;;;;;;;4951123;29;20040;-81
2020/12/24 03:43:20;;;;;;;1.53;0.30;;;;;;;;;;4950473;29;20054;-81
2020/12/24 03:45:46;;;;;;;0.43;0.20;;;;;;;;;;4952816;29;20040;-82
2020/12/24 03:48:12;;;;;;;1.17;0.20;;;;;;;;;;4955213;29;20027;-82
2020/12/24 03:50:38;;;;;;;2.60;0.20;;;;;;;;;;4958582;29;20031;-82
2020/12/24 03:53:04;;;;;;;0.70;0.30;;;;;;;;;;5036801;23;20050;-81
2020/12/24 03:55:30;;;;;;;1.53;0.20;;;;;;;;;;4959953;29;20022;-81
2020/12/24 03:57:56;;;;;;;1.40;0.30;;;;;;;;;;4954010;29;20028;-82
2020/12/24 04:00:22;;;;;;;1.00;0.30;;;;;;;;;;4950255;29;20051;-81
2020/12/24 04:02:48;;;;;;;1.07;0.33;;;;;;;;;;4950658;29;20035;-82
2020/12/24 04:05:14;;;;;;;1.97;0.30;;;;;;;;;;4948913;29;20047;-82
2020/12/24 04:07:40;;;;;;;0.57;0.20;;;;;;;;;;4953643;29;20028;-81
2020/12/24 04:10:06;;;;;;;0.20;0.20;;;;;;;;;;4953998;29;20075;-81
2020/12/24 04:12:33;;;;;;;2.00;0.30;;;;;;;;;;4956446;29;20063;-82
2020/12/24 04:14:59;;;;;;;0.37;0.07;;;;;;;;;;4956669;29;20031;-81
2020/12/24 04:17:26;;;;;;;0.23;0.10;;;;;;;;;;4955894;29;20133;-82
2020/12/24 04:19:52;;;;;;;1.83;0.20;;;;;;;;;;4955070;29;20027;-81
2020/12/24 04:22:18;;;;;;;2.43;0.13;;;;;;;;;;4956856;29;20046;-82
2020/12/24 04:24:45;;;;;;;3.53;0.47;;;;;;;;;;4955479;29;20036;-82
2020/12/24 04:27:11;;;;;;;1.83;0.30;;;;;;;;;;4957391;29;20032;-82
2020/12/24 04:29:37;;;;;;;1.00;0.20;;;;;;;;;;4958245;29;20039;-82
2020/12/24 04:32:03;;;;;;;0.40;0.10;;;;;;;;;;4957928;29;20027;-83
2020/12/24 04:34:29;;;;;;;1.13;0.27;;;;;;;;;;4958012;29;20023;-82
2020/12/24 04:36:55;;;;;;;0.77;0.10;;;;;;;;;;4958493;29;20035;-82
2020/12/24 04:39:21;;;;;;;1.27;0.20;;;;;;;;;;4954654;29;20024;-81
2020/12/24 04:41:47;;;;;;;2.93;0.10;;;;;;;;;;4950684;29;20031;-81
2020/12/24 04:44:14;;;;;;;0.70;0.20;;;;;;;;;;4951208;29;20031;-81
2020/12/24 04:46:42;;;;;;;2.47;0.53;;;;;;;;;;4958822;29;20012;-81
2020/12/24 04:49:09;;;;;;;1.47;0.13;;;;;;;;;;4955863;29;20036;-82
2020/12/24 04:51:36;;;;;;;0.60;0.30;;;;;;;;;;4974542;23;20016;-80
2020/12/24 04:54:02;;;;;;;2.33;0.30;;;;;;;;;;4956400;29;20039;-82
2020/12/24 04:56:28;;;;;;;1.20;0.33;;;;;;;;;;4952822;29;20031;-82
2020/12/24 04:58:54;;;;;;;0.20;0.10;;;;;;;;;;4948794;29;20055;-81
2020/12/24 05:01:20;;;;;;;2.60;0.27;;;;;;;;;;4950765;29;20028;-83
2020/12/24 05:03:47;;;;;;;1.03;0.17;;;;;;;;;;4949647;29;20035;-81
2020/12/24 05:06:17;;;;;;;1.73;0.30;;;;;;;;;;4955758;29;20027;-82
2020/12/24 05:08:53;;;;;;;1.97;0.37;;;;;;;;;;4956134;29;20059;-81
2020/12/24 05:11:29;;;;;;;0.93;0.40;;;;;;;;;;4953145;29;20028;-81
2020/12/24 05:14:15;;;;;;;1.63;0.30;;;;;;;;;;4957723;29;20031;-81
2020/12/24 05:16:41;;;;;;;0.20;0.20;;;;;;;;;;4939352;29;20521;-81
2020/12/24 05:19:11;;;;;;;1.03;0.20;;;;;;;;;;4955565;29;20028;-82
2020/12/24 05:21:39;;;;;;;0.73;0.20;;;;;;;;;;4950821;29;20039;-82
2020/12/24 05:24:20;;;;;;;3.03;0.40;;;;;;;;;;4947728;29;20063;-80
2020/12/24 05:26:46;;;;;;;0.60;0.13;;;;;;;;;;4945501;29;20024;-81
2020/12/24 05:29:13;;;;;;;4.63;0.30;;;;;;;;;;4949128;29;20056;-81
2020/12/24 05:31:39;;;;;;;1.20;0.47;;;;;;;;;;4959652;29;20058;-80
2020/12/24 05:34:05;;;;;;;2.73;0.30;;;;;;;;;;4955590;29;20035;-81
2020/12/24 05:36:31;;;;;;;3.13;0.40;;;;;;;;;;4955788;29;20024;-81
2020/12/24 05:38:57;;;;;;;1.40;0.30;;;;;;;;;;4941576;29;20529;-81
2020/12/24 05:41:26;;;;;;;0.77;0.23;;;;;;;;;;4942024;29;20035;-80
2020/12/24 05:43:58;;;;;;;1.83;0.30;;;;;;;;;;4939867;29;20035;-80
2020/12/24 05:46:24;;;;;;;2.27;0.30;;;;;;;;;;4941853;29;20114;-80
2020/12/24 05:48:51;;;;;;;2.63;0.40;;;;;;;;;;4944341;29;20032;-81
2020/12/24 05:51:18;;;;;;;2.00;0.40;;;;;;;;;;4943630;29;20023;-81
2020/12/24 05:53:45;;;;;;;0.80;0.10;;;;;;;;;;4943478;29;20146;-81
2020/12/24 05:56:18;;;;;;;0.70;0.30;;;;;;;;;;4947477;29;20028;-81
2020/12/24 05:58:46;;;;;;;0.87;0.30;;;;;;;;;;4930975;29;20088;-81
2020/12/24 06:01:13;;;;;;;1.50;0.40;;;;;;;;;;4949983;29;20028;-81
2020/12/24 06:03:48;;;;;;;2.67;0.60;;;;;;;;;;4948146;29;20131;-81
2020/12/24 06:06:17;;;;;;;3.83;0.40;;;;;;;;;;4949132;29;20039;-80
2020/12/24 06:08:47;;;;;;;1.43;0.40;;;;;;;;;;4932208;29;20088;-80
2020/12/24 06:11:13;;;;;;;2.23;0.40;;;;;;;;;;4950370;29;20024;-80
2020/12/24 06:13:43;;;;;;;1.23;0.50;;;;;;;;;;4939682;29;20083;-80
2020/12/24 06:16:10;;;;;;;1.27;0.20;;;;;;;;;;4950244;29;20035;-80
2020/12/24 06:18:37;;;;;;;3.17;0.40;;;;;;;;;;4953583;29;20008;-81
2020/12/24 06:21:03;;;;;;;0.40;0.20;;;;;;;;;;4956597;29;20060;-80
2020/12/24 06:23:36;;;;;;;1.23;0.30;;;;;;;;;;4957638;29;20040;-81
2020/12/24 06:26:04;;;;;;;0.90;0.37;;;;;;;;;;4942220;29;20028;-82
2020/12/24 06:28:32;;;;;;;0.67;0.37;;;;;;;;;;4938052;29;20076;-81
2020/12/24 06:31:00;;;;;;;1.23;0.43;;;;;;;;;;4938514;29;20029;-81
2020/12/24 06:33:29;;;;;;;1.43;0.30;;;;;;;;;;4947409;29;20136;-80
2020/12/24 06:35:56;;;;;;;3.03;0.40;;;;;;;;;;4945235;29;20541;-81
2020/12/24 06:38:41;;;;;;;1.43;0.47;;;;;;;;;;4946238;29;20025;-81
2020/12/24 06:41:22;;;;;;;1.35;0.38;;;;;;;;;;4932755;29;20032;-81
2020/12/24 06:43:48;;;;;;;3.90;0.73;;;;;;;;;;4931519;29;20047;-81
2020/12/24 06:46:14;;;;;;;1.17;0.30;;;;;;;;;;4948254;29;20029;-81
2020/12/24 06:48:40;;;;;;;1.97;0.50;;;;;;;;;;4945167;29;20084;-80
2020/12/24 06:51:06;;;;;;;1.33;0.50;;;;;;;;;;4948094;29;20096;-80
2020/12/24 06:53:32;;;;;;;1.17;0.27;;;;;;;;;;4949539;29;20091;-80
2020/12/24 06:56:14;;;;;;;2.90;0.67;;;;;;;;;;4956232;29;20016;-80
2020/12/24 06:58:58;;;;;;;1.57;0.40;;;;;;;;;;4941048;29;20036;-80
2020/12/24 07:01:31;;;;;;;2.20;0.40;;;;;;;;;;4958088;29;20032;-81
2020/12/24 07:04:02;;;;;;;2.97;0.60;;;;;;;;;;4942302;29;20067;-80
2020/12/24 07:06:45;;;;;;;3.20;0.47;;;;;;;;;;4934964;29;20459;-81
2020/12/24 07:09:11;;;;;;;5.57;0.50;;;;;;;;;;4950174;29;20024;-80
2020/12/24 07:11:42;;;;;;;2.53;0.70;;;;;;;;;;4942792;29;20035;-80
2020/12/24 07:14:23;;;;;;;3.20;1.00;;;;;;;;;;4940314;29;20042;-81
2020/12/24 07:16:49;;;;;;;4.03;1.37;;;;;;;;;;4942151;29;20005;-83
2020/12/24 07:19:18;;;;;;;2.17;0.70;;;;;;;;;;4942718;29;20088;-81
2020/12/24 07:21:47;;;;;;;4.07;1.10;;;;;;;;;;4948111;29;20036;-80
2020/12/24 07:24:14;;;;;;;5.00;0.90;;;;;;;;;;4944375;29;20533;-80
2020/12/24 07:26:41;;;;;;;5.37;0.90;;;;;;;;;;4930326;29;20417;-80
2020/12/24 07:29:08;;;;;;;3.97;1.20;;;;;;;;;;4943024;29;20028;-79
2020/12/24 07:31:34;;;;;;;8.73;1.13;;;;;;;;;;4943525;29;20039;-81
2020/12/24 07:34:01;;;;;;;5.13;0.73;;;;;;;;;;4944628;29;20032;-80
2020/12/24 07:36:29;;;;;;;2.23;0.63;;;;;;;;;;4928462;29;20036;-80
2020/12/24 07:38:55;;;;;;;3.13;0.87;;;;;;;;;;4930067;29;20028;-80
2020/12/24 07:41:22;;;;;;;4.07;0.93;;;;;;;;;;4940969;29;20459;-79
2020/12/24 07:43:48;;;;;;;5.33;1.23;;;;;;;;;;4940015;29;20494;-80
2020/12/24 07:46:15;;;;;;;5.60;1.43;;;;;;;;;;4939549;29;20363;-79
2020/12/24 07:48:43;;;;;;;3.03;0.80;;;;;;;;;;4940909;29;20533;-80
2020/12/24 07:51:10;;;;;;;3.40;1.00;;;;;;;;;;4941496;29;20450;-79
2020/12/24 07:53:36;;;;;;;5.87;1.30;;;;;;;;;;4944243;29;20070;-79
2020/12/24 07:56:06;;;;;;;4.57;0.90;;;;;;;;;;4946251;29;20036;-79
2020/12/24 07:58:32;;;;;;;4.63;0.90;;;;;;;;;;4944669;29;20088;-79
2020/12/24 08:01:01;;;;;;;3.63;0.87;;;;;;;;;;4943030;29;20048;-79
2020/12/24 08:03:27;;;;;;;4.93;1.10;;;;;;;;;;4941098;29;20054;-79
2020/12/24 08:06:01;;;;;;;3.77;0.90;;;;;;;;;;4925646;29;20034;-79
2020/12/24 08:08:27;;;;;;;2.93;0.70;;;;;;;;;;4944382;29;20058;-79
2020/12/24 08:10:53;;;;;;;7.90;1.10;;;;;;;;;;4932846;29;20066;-79
2020/12/24 08:13:21;;;;;;;5.53;1.13;;;;;;;;;;4948490;29;20031;-80
2020/12/24 08:15:48;;;;;;;8.20;0.93;;;;;;;;;;4950806;29;20040;-79
2020/12/24 08:18:14;;;;;;;6.50;0.90;;;;;;;;;;4937077;29;20027;-80
2020/12/24 08:20:58;;;;;;;8.17;1.27;;;;;;;;;;4932762;29;20046;-80
2020/12/24 08:23:35;;;;;;;5.80;1.10;;;;;;;;;;4949826;29;20099;-79
2020/12/24 08:26:01;;;;;;;8.03;1.53;;;;;;;;;;4944460;29;20047;-80
2020/12/24 08:28:27;;;;;;;8.07;1.50;;;;;;;;;;4945607;29;20039;-80
2020/12/24 08:30:54;;;;;;;9.23;1.00;;;;;;;;;;4936029;29;20031;-80
2020/12/24 08:33:20;;;;;;;9.63;1.20;;;;;;;;;;4935242;29;20036;-79
2020/12/24 08:35:46;;;;;;;10.37;0.87;;;;;;;;;;4936691;29;20123;-80
2020/12/24 08:38:16;;;;;;;11.67;1.37;;;;;;;;;;4953878;29;20109;-80
2020/12/24 08:40:42;;;;;;;9.30;1.10;;;;;;;;;;4954138;29;20027;-79
2020/12/24 08:43:09;;;;;;;13.97;3.07;;;;;;;;;;4936860;29;20039;-79
2020/12/24 08:45:42;;;;;;;10.90;1.50;;;;;;;;;;4956160;29;20062;-79
2020/12/24 08:48:08;;;;;;;15.27;2.87;;;;;;;;;;4954591;29;20039;-80
2020/12/24 08:50:35;;;;;;;11.13;1.40;;;;;;;;;;4951697;29;20086;-79
2020/12/24 08:53:05;;;;;;;12.70;1.80;;;;;;;;;;4950129;29;20055;-80
2020/12/24 08:55:31;;;;;;;10.20;1.33;;;;;;;;;;4933136;29;20032;-80
2020/12/24 08:57:57;;;;;;;11.03;2.13;;;;;;;;;;4947532;29;20032;-82
2020/12/24 09:00:24;;;;;;;12.20;2.03;;;;;;;;;;4932868;29;20042;-81
2020/12/24 09:02:50;;;;;;;24.20;4.17;;;;;;;;;;4933810;29;20036;-81
2020/12/24 09:05:21;;;;;;;13.33;2.03;;;;;;;;;;4956397;29;20016;-81
2020/12/24 09:07:47;;;;;;;10.63;1.40;;;;;;;;;;4958831;29;20107;-81
2020/12/24 09:10:20;;;;;;;12.10;1.70;;;;;;;;;;4957287;29;20019;-81
2020/12/24 09:12:47;;;;;;;18.83;2.30;;;;;;;;;;4960165;29;20027;-82
2020/12/24 09:15:14;;;;;;;15.27;1.40;;;;;;;;;;4947282;29;20049;-81
2020/12/24 09:17:50;;;;;;;12.13;1.70;;;;;;;;;;4947212;29;20023;-82
2020/12/24 09:20:21;;;;;;;13.27;2.10;;;;;;;;;;4949139;29;20051;-82
2020/12/24 09:22:51;;;;;;;24.97;2.43;;;;;;;;;;4949331;29;20112;-82
2020/12/24 09:25:36;;;;;;;10.73;1.40;;;;;;;;;;4949769;29;20028;-82
2020/12/24 09:28:03;;;;;;;16.45;2.28;;;;;;;;;;4949237;29;20023;-82
2020/12/24 09:30:29;;;;;;;19.40;1.57;;;;;;;;;;4949056;29;20028;-81
2020/12/24 09:33:00;;;;;;;14.90;1.90;;;;;;;;;;4949272;29;20030;-80
2020/12/24 09:35:26;;;;;;;21.57;2.33;;;;;;;;;;4951320;29;20044;-81
2020/12/24 09:37:53;;;;;;;15.43;1.90;;;;;;;;;;4947926;29;20027;-81
2020/12/24 09:40:19;;;;;;;21.53;2.53;;;;;;;;;;4952018;29;20091;-81
2020/12/24 09:42:45;;;;;;;26.53;2.77;;;;;;;;;;4950494;29;20091;-80
2020/12/24 09:45:12;;;;;;;15.73;1.97;;;;;;;;;;4951083;29;20023;-81
2020/12/24 09:47:38;;;;;;;21.20;1.30;;;;;;;;;;4951883;29;20059;-81
2020/12/24 09:50:05;;;;;;;18.57;1.60;;;;;;;;;;4951977;29;20038;-81
2020/12/24 09:52:31;;;;;;;15.83;1.43;;;;;;;;;;4951829;29;20059;-81
2020/12/24 09:54:57;;;;;;;19.03;1.93;;;;;;;;;;4935276;29;20024;-82
2020/12/24 09:57:23;;;;;;;14.67;2.13;;;;;;;;;;4922010;29;20040;-81
2020/12/24 09:59:49;;;;;;;22.03;1.97;;;;;;;;;;4938163;29;20049;-81
2020/12/24 10:02:15;;;;;;;23.27;2.47;;;;;;;;;;4939035;29;20035;-81
2020/12/24 10:04:41;;;;;;;13.80;2.00;;;;;;;;;;4956673;29;20032;-81
2020/12/24 10:07:08;;;;;;;11.67;1.47;;;;;;;;;;4936652;29;20032;-80
2020/12/24 10:09:34;;;;;;;13.33;1.73;;;;;;;;;;4959746;29;20062;-81
2020/12/24 10:12:00;;;;;;;13.23;1.17;;;;;;;;;;4946560;29;20032;-81
2020/12/24 10:14:26;;;;;;;16.00;1.77;;;;;;;;;;4959756;29;20028;-82
2020/12/24 10:16:52;;;;;;;13.80;1.40;;;;;;;;;;4960520;29;20028;-82
2020/12/24 10:19:18;;;;;;;10.40;1.47;;;;;;;;;;4947607;29;20031;-82
2020/12/24 10:21:44;;;;;;;9.77;1.30;;;;;;;;;;4960618;29;20083;-82
2020/12/24 10:24:10;;;;;;;15.37;1.87;;;;;;;;;;4957387;29;20039;-81
2020/12/24 10:26:38;;;;;;;14.40;1.10;;;;;;;;;;4960944;29;20023;-81
2020/12/24 10:29:04;;;;;;;16.77;1.73;;;;;;;;;;4963185;29;20039;-81
2020/12/24 10:31:30;;;;;;;12.90;1.63;;;;;;;;;;4962153;29;20028;-81
2020/12/24 10:33:56;;;;;;;12.80;1.33;;;;;;;;;;4947563;29;20052;-82
2020/12/24 10:36:22;;;;;;;13.50;1.93;;;;;;;;;;4938686;29;20036;-82
2020/12/24 10:38:48;;;;;;;15.53;1.50;;;;;;;;;;4947974;29;20038;-81
2020/12/24 10:41:15;;;;;;;13.83;1.40;;;;;;;;;;4950009;29;20023;-81
2020/12/24 10:43:41;;;;;;;23.63;3.53;;;;;;;;;;4951012;29;20038;-81
2020/12/24 10:46:07;;;;;;;9.07;1.30;;;;;;;;;;4932471;29;20027;-81
2020/12/24 10:48:33;;;;;;;10.70;1.50;;;;;;;;;;4948091;29;20110;-81
2020/12/24 10:50:59;;;;;;;12.77;1.83;;;;;;;;;;4948556;29;20031;-82
2020/12/24 10:53:25;;;;;;;8.87;1.60;;;;;;;;;;4931783;29;20664;-81
2020/12/24 10:55:51;;;;;;;10.70;0.97;;;;;;;;;;4949711;29;20028;-81
2020/12/24 10:58:17;;;;;;;15.87;1.90;;;;;;;;;;4951026;29;20032;-81
2020/12/24 11:00:43;;;;;;;7.90;0.67;;;;;;;;;;4934735;29;20054;-81
2020/12/24 11:03:09;;;;;;;13.60;1.13;;;;;;;;;;4954080;29;20033;-82
2020/12/24 11:05:37;;;;;;;10.90;1.67;;;;;;;;;;4937037;29;20028;-82
2020/12/24 11:08:03;;;;;;;11.47;1.47;;;;;;;;;;4953584;29;20027;-82
2020/12/24 11:10:29;;;;;;;12.80;1.37;;;;;;;;;;4953652;29;20055;-82
2020/12/24 11:12:55;;;;;;;11.03;1.37;;;;;;;;;;4955854;29;20028;-81
2020/12/24 11:15:21;;;;;;;7.77;1.30;;;;;;;;;;4945266;29;20040;-81
2020/12/24 11:17:47;;;;;;;26.00;3.80;;;;;;;;;;4946431;29;20035;-82
2020/12/24 11:20:13;;;;;;;15.33;1.43;;;;;;;;;;4945127;29;20023;-82
2020/12/24 11:22:39;;;;;;;15.77;2.33;;;;;;;;;;5044569;23;20056;-82
2020/12/24 11:25:05;;;;;;;11.47;0.97;;;;;;;;;;4952512;29;20024;-82
2020/12/24 11:27:31;;;;;;;21.40;1.30;;;;;;;;;;4955644;29;20060;-81
2020/12/24 11:29:57;;;;;;;15.53;2.07;;;;;;;;;;4938575;29;20013;-81
2020/12/24 11:32:23;;;;;;;8.33;1.20;;;;;;;;;;4955973;29;20032;-82
2020/12/24 11:34:49;;;;;;;12.33;1.10;;;;;;;;;;4955418;29;20036;-82
2020/12/24 11:37:16;;;;;;;6.83;0.90;;;;;;;;;;4948878;29;20031;-81
2020/12/24 11:39:42;;;;;;;12.33;0.97;;;;;;;;;;4946312;29;20027;-81
2020/12/24 11:42:08;;;;;;;11.73;3.67;;;;;;;;;;4947720;29;20031;-82
2020/12/24 11:44:34;;;;;;;8.90;1.23;;;;;;;;;;4935419;29;20075;-81
2020/12/24 11:47:00;;;;;;;6.13;2.10;;;;;;;;;;4936029;29;20020;-81
2020/12/24 11:49:26;;;;;;;4.77;0.90;;;;;;;;;;4948165;29;20039;-81
2020/12/24 11:51:52;;;;;;;13.93;2.23;;;;;;;;;;4949842;29;20036;-81
2020/12/24 11:54:18;;;;;;;8.33;1.10;;;;;;;;;;4949967;29;20047;-80
2020/12/24 11:56:46;;;;;;;10.83;1.33;;;;;;;;;;4935602;29;20028;-81
2020/12/24 11:59:12;;;;;;;8.67;1.00;;;;;;;;;;4954083;29;20035;-81
2020/12/24 12:01:38;;;;;;;12.13;1.80;;;;;;;;;;4956503;29;20048;-81
2020/12/24 12:04:04;;;;;;;10.17;1.00;;;;;;;;;;4939944;29;20092;-83
2020/12/24 12:06:30;;;;;;;10.27;2.23;;;;;;;;;;4957205;29;20083;-81
2020/12/24 12:08:56;;;;;;;4.30;0.77;;;;;;;;;;4958330;29;20032;-82
2020/12/24 12:11:23;;;;;;;12.03;1.10;;;;;;;;;;4957180;29;20032;-82
2020/12/24 12:13:50;;;;;;;9.50;2.37;;;;;;;;;;4954654;29;20051;-81
2020/12/24 12:16:22;;;;;;;4.97;0.47;;;;;;;;;;4956418;29;20016;-83
2020/12/24 12:18:48;;;;;;;7.77;0.80;;;;;;;;;;4956977;29;20040;-82
2020/12/24 12:21:17;;;;;;;8.43;1.33;;;;;;;;;;4938429;29;20020;-83
2020/12/24 12:23:43;;;;;;;9.40;1.37;;;;;;;;;;4956604;29;20062;-82
2020/12/24 12:26:13;;;;;;;8.90;1.20;;;;;;;;;;4959043;29;20027;-81
2020/12/24 12:28:43;;;;;;;9.20;1.43;;;;;;;;;;4958585;29;20014;-83
2020/12/24 12:31:15;;;;;;;12.30;2.30;;;;;;;;;;4959925;29;20056;-82
2020/12/24 12:33:41;;;;;;;11.63;1.30;;;;;;;;;;4959177;29;20015;-82
2020/12/24 12:36:07;;;;;;;8.00;2.80;;;;;;;;;;4957902;29;20036;-82
2020/12/24 12:38:34;;;;;;;10.17;2.07;;;;;;;;;;4957717;29;20071;-83
2020/12/24 12:41:00;;;;;;;5.70;1.10;;;;;;;;;;4959665;29;20014;-84
2020/12/24 12:43:26;;;;;;;6.60;0.80;;;;;;;;;;4958472;29;20031;-83
2020/12/24 12:45:52;;;;;;;5.10;0.67;;;;;;;;;;4958995;29;20012;-82
2020/12/24 12:48:18;;;;;;;7.70;1.10;;;;;;;;;;4957951;29;20020;-83
2020/12/24 12:50:44;;;;;;;6.87;0.83;;;;;;;;;;4959176;29;20040;-84
2020/12/24 12:53:10;;;;;;;11.40;1.20;;;;;;;;;;4959254;29;20024;-83
2020/12/24 12:55:37;;;;;;;5.30;1.10;;;;;;;;;;4958760;29;20028;-83
2020/12/24 12:58:03;;;;;;;6.77;1.00;;;;;;;;;;4958264;29;20077;-82
2020/12/24 13:00:29;;;;;;;7.10;1.57;;;;;;;;;;4959232;29;20020;-82
2020/12/24 13:02:55;;;;;;;11.80;1.83;;;;;;;;;;4960398;29;20031;-83
2020/12/24 13:05:21;;;;;;;7.50;1.50;;;;;;;;;;5044517;23;20041;-82
2020/12/24 13:07:47;;;;;;;12.37;2.20;;;;;;;;;;4935540;29;20047;-81
2020/12/24 13:10:13;;;;;;;11.40;1.53;;;;;;;;;;4931633;29;20031;-82
2020/12/24 13:12:40;;;;;;;11.37;1.97;;;;;;;;;;4930465;29;20091;-81
2020/12/24 13:15:06;;;;;;;12.40;1.63;;;;;;;;;;4933143;29;20024;-82
2020/12/24 13:17:32;;;;;;;13.63;2.00;;;;;;;;;;4932965;29;20062;-82
2020/12/24 13:19:58;;;;;;;10.23;2.00;;;;;;;;;;4931973;29;20119;-82
2020/12/24 13:22:24;;;;;;;12.23;1.80;;;;;;;;;;4933154;29;20040;-82
2020/12/24 13:24:50;;;;;;;15.43;4.13;;;;;;;;;;4938523;29;20016;-82
2020/12/24 13:27:16;;;;;;;13.93;3.13;;;;;;;;;;4925354;29;20041;-81
2020/12/24 13:29:43;;;;;;;20.73;3.73;;;;;;;;;;4941056;29;20039;-84
2020/12/24 13:32:09;;;;;;;21.67;3.23;;;;;;;;;;5067147;23;20059;-83
2020/12/24 13:34:35;;;;;;;16.00;2.30;;;;;;;;;;4959038;29;20020;-81
2020/12/24 13:37:01;;;;;;;20.07;2.23;;;;;;;;;;4960014;29;20020;-83
2020/12/24 13:39:28;;;;;;;13.10;2.60;;;;;;;;;;5040746;23;20084;-83
2020/12/24 13:41:54;;;;;;;14.87;1.50;;;;;;;;;;4956777;29;20017;-83
2020/12/24 13:44:20;;;;;;;25.70;2.70;;;;;;;;;;4955254;29;20139;-81
2020/12/24 13:46:51;;;;;;;22.23;3.50;;;;;;;;;;4938412;29;20015;-83
2020/12/24 13:49:18;;;;;;;21.23;2.30;;;;;;;;;;4954334;29;20051;-83
2020/12/24 13:51:44;;;;;;;9.73;1.50;;;;;;;;;;5045024;23;20124;-82
2020/12/24 13:54:10;;;;;;;5.20;0.90;;;;;;;;;;4955809;29;20040;-81
2020/12/24 13:56:36;;;;;;;7.27;1.20;;;;;;;;;;4952028;29;20035;-81
2020/12/24 13:59:02;;;;;;;8.10;0.83;;;;;;;;;;4954578;29;20043;-82
2020/12/24 14:01:28;;;;;;;5.50;1.20;;;;;;;;;;4953548;29;20012;-82
2020/12/24 14:03:54;;;;;;;11.77;2.17;;;;;;;;;;4956391;29;20039;-82
2020/12/24 14:06:21;;;;;;;7.07;1.40;;;;;;;;;;4954992;29;20039;-82
2020/12/24 14:08:47;;;;;;;9.70;1.33;;;;;;;;;;4957179;29;20034;-82
2020/12/24 14:11:19;;;;;;;5.23;0.67;;;;;;;;;;4958967;29;20039;-82
2020/12/24 14:13:45;;;;;;;6.10;1.50;;;;;;;;;;4959758;29;20076;-83
2020/12/24 14:16:11;;;;;;;7.03;1.50;;;;;;;;;;4958255;29;20028;-81
2020/12/24 14:18:37;;;;;;;11.90;1.20;;;;;;;;;;4958114;29;20016;-82
2020/12/24 14:21:05;;;;;;;6.30;1.40;;;;;;;;;;4956912;29;20027;-80
2020/12/24 14:23:31;;;;;;;4.20;0.80;;;;;;;;;;4956154;29;20028;-83
2020/12/24 14:25:57;;;;;;;6.37;1.70;;;;;;;;;;4960261;29;20075;-81
2020/12/24 14:28:23;;;;;;;4.83;1.30;;;;;;;;;;4961620;29;20031;-82
2020/12/24 14:30:50;;;;;;;3.43;0.60;;;;;;;;;;4961392;29;20015;-83
2020/12/24 14:33:18;;;;;;;6.73;1.10;;;;;;;;;;4959872;29;20035;-82
2020/12/24 14:35:44;;;;;;;6.43;0.60;;;;;;;;;;4943062;29;20012;-82
2020/12/24 14:38:10;;;;;;;4.13;0.80;;;;;;;;;;4956236;29;20039;-82
2020/12/24 14:40:37;;;;;;;4.40;0.87;;;;;;;;;;4957511;29;20035;-82